createdAt,value
2019-02-04T00:02:11.019Z,83.70
2019-02-04T00:06:15.697Z,84.30
2019-02-04T00:10:20.249Z,84.30
2019-02-04T00:14:24.747Z,84.30
2019-02-04T00:18:29.288Z,84.20
2019-02-04T00:22:33.835Z,84.30
2019-02-04T00:26:38.391Z,84.30
2019-02-04T00:30:42.982Z,84.30
2019-02-04T00:34:47.445Z,84.20
2019-02-04T00:38:51.984Z,84.20
2019-02-04T00:42:56.523Z,84.30
2019-02-04T00:47:01.083Z,84.30
2019-02-04T00:51:05.630Z,84.30
2019-02-04T00:55:10.603Z,84.30
2019-02-04T00:59:15.343Z,84.50
2019-02-04T01:03:19.948Z,84.40
2019-02-04T01:07:24.488Z,84.40
2019-02-04T01:11:29.012Z,84.40
2019-02-04T01:15:33.583Z,84.30
2019-02-04T01:19:38.110Z,84.60
2019-02-04T01:23:42.664Z,84.60
2019-02-04T01:27:47.202Z,84.40
2019-02-04T01:31:51.736Z,84.30
2019-02-04T01:35:56.595Z,84.40
2019-02-04T01:40:01.144Z,84.50
2019-02-04T01:44:05.695Z,84.60
2019-02-04T01:48:10.245Z,84.50
2019-02-04T01:52:14.846Z,84.50
2019-02-04T01:56:19.419Z,84.50
2019-02-04T02:00:32.380Z,84.90
2019-02-04T02:04:36.956Z,84.80
2019-02-04T02:08:41.523Z,84.80
2019-02-04T02:12:46.033Z,84.80
2019-02-04T02:20:40.292Z,84.20
2019-02-04T02:32:47.984Z,84.50
2019-02-04T02:36:52.524Z,85.00
2019-02-04T02:40:57.081Z,85.30
2019-02-04T02:45:28.309Z,84.70
2019-02-04T02:49:32.877Z,85.40
2019-02-04T03:01:32.331Z,84.70
2019-02-04T03:05:36.877Z,85.50
2019-02-04T03:09:41.415Z,85.40
2019-02-04T03:13:45.980Z,85.40
2019-02-04T03:17:52.506Z,85.40
2019-02-04T03:21:57.276Z,85.40
2019-02-04T03:26:01.791Z,85.30
2019-02-04T03:30:14.264Z,85.20
2019-02-04T03:34:18.820Z,85.10
2019-02-04T03:38:23.367Z,84.90
2019-02-04T03:42:28.013Z,85.00
2019-02-04T03:46:32.499Z,84.90
2019-02-04T03:50:37.100Z,84.90
2019-02-04T03:54:41.680Z,85.60
2019-02-04T03:58:46.288Z,84.80
2019-02-04T04:02:51.608Z,84.90
2019-02-04T04:06:56.255Z,84.80
2019-02-04T04:11:00.802Z,84.90
2019-02-04T04:15:05.741Z,84.90
2019-02-04T04:19:10.315Z,84.80
2019-02-04T04:23:14.852Z,84.80
2019-02-04T04:28:58.419Z,84.30
2019-02-04T04:37:01.448Z,84.40
2019-02-04T04:41:05.989Z,85.10
2019-02-04T04:45:12.258Z,84.90
2019-02-04T04:49:16.843Z,85.00
2019-02-04T04:53:21.377Z,85.00
2019-02-04T04:57:26.231Z,85.30
2019-02-04T05:01:30.794Z,85.30
2019-02-04T05:05:35.580Z,85.30
2019-02-04T05:09:40.101Z,85.30
2019-02-04T05:13:44.643Z,85.80
2019-02-04T05:17:49.176Z,85.70
2019-02-04T05:21:53.719Z,85.50
2019-02-04T05:25:58.310Z,85.40
2019-02-04T05:30:02.839Z,85.40
2019-02-04T05:34:07.487Z,85.60
2019-02-04T05:45:02.703Z,84.90
2019-02-04T06:20:30.399Z,84.60
2019-02-04T06:26:12.871Z,84.60
2019-02-04T06:36:52.942Z,84.80
2019-02-04T06:40:57.587Z,85.60
2019-02-04T06:53:26.051Z,84.90
2019-02-04T06:57:30.656Z,84.80
2019-02-04T07:01:35.220Z,84.70
2019-02-04T07:05:43.969Z,85.50
2019-02-04T07:18:14.212Z,85.00
2019-02-04T07:27:44.924Z,85.00
2019-02-04T07:35:53.422Z,85.10
2019-02-04T07:39:58.094Z,85.00
2019-02-04T07:57:57.496Z,85.00
2019-02-04T08:02:02.736Z,85.70
2019-02-04T08:06:07.271Z,85.50
2019-02-04T08:15:46.098Z,85.10
2019-02-04T08:19:50.592Z,85.60
2019-02-04T08:33:45.711Z,84.70
2019-02-04T08:42:11.370Z,84.50
2019-02-04T08:46:15.903Z,85.10
2019-02-04T08:53:43.003Z,84.30
2019-02-04T08:57:47.950Z,85.00
2019-02-04T09:08:45.929Z,84.60
2019-02-04T09:15:47.806Z,84.10
2019-02-04T09:19:52.310Z,84.90
2019-02-04T09:27:51.127Z,84.00
2019-02-04T09:33:52.307Z,83.70
2019-02-04T09:37:56.895Z,84.30
2019-02-04T09:42:01.428Z,84.00
2019-02-04T09:46:05.985Z,84.10
2019-02-04T09:50:21.386Z,83.50
2019-02-04T09:59:20.502Z,82.20
2019-02-04T10:07:06.945Z,82.40
2019-02-04T10:16:03.158Z,82.40
2019-02-04T10:20:08.740Z,82.90
2019-02-04T10:32:35.667Z,81.50
2019-02-04T10:39:24.531Z,81.20
2019-02-04T10:54:29.836Z,79.90
2019-02-04T10:58:34.352Z,80.80
2019-02-04T11:02:38.895Z,80.70
2019-02-04T11:06:43.427Z,80.70
2019-02-04T11:10:48.120Z,79.60
2019-02-04T11:14:52.679Z,80.10
2019-02-04T11:20:37.826Z,79.20
2019-02-04T11:24:45.163Z,80.10
2019-02-04T11:29:40.052Z,79.40
2019-02-04T11:33:44.621Z,79.50
2019-02-04T11:54:51.375Z,78.70
2019-02-04T12:00:52.906Z,78.90
2019-02-04T12:56:09.230Z,77.50
2019-02-04T13:01:43.731Z,76.90
2019-02-04T13:08:39.021Z,76.50
2019-02-04T13:12:43.623Z,77.60
2019-02-04T13:18:11.430Z,76.60
2019-02-04T13:22:16.481Z,77.20
2019-02-04T13:26:21.012Z,77.20
2019-02-04T13:30:26.576Z,77.30
2019-02-04T13:34:31.111Z,76.80
2019-02-04T13:38:35.656Z,77.00
2019-02-04T13:42:40.183Z,77.30
2019-02-04T13:46:44.725Z,77.10
2019-02-04T13:50:49.220Z,76.50
2019-02-04T13:54:53.781Z,76.60
2019-02-04T13:58:58.619Z,76.30
2019-02-04T14:03:03.389Z,76.50
2019-02-04T14:07:07.883Z,75.30
2019-02-04T14:11:12.404Z,76.60
2019-02-04T14:19:00.852Z,75.60
2019-02-04T14:23:05.490Z,75.60
2019-02-04T14:27:10.098Z,75.80
2019-02-04T14:31:14.627Z,76.30
2019-02-04T14:35:19.178Z,76.30
2019-02-04T14:39:23.715Z,76.30
2019-02-04T14:43:51.352Z,76.20
2019-02-04T14:48:31.375Z,75.90
2019-02-04T14:53:00.535Z,76.60
2019-02-04T14:57:35.449Z,76.50
2019-02-04T15:02:15.758Z,76.20
2019-02-04T15:06:41.772Z,75.60
2019-02-04T16:21:46.288Z,74.90
2019-02-04T16:25:50.819Z,75.40
2019-02-04T16:31:48.742Z,74.90
2019-02-04T16:35:53.335Z,76.40
2019-02-04T18:18:29.795Z,73.20
2019-02-04T18:22:34.352Z,73.10
2019-02-04T19:13:01.006Z,71.60
2019-02-04T19:17:05.625Z,73.50
2019-02-04T19:21:10.179Z,73.20
2019-02-04T19:25:15.440Z,73.40
2019-02-04T19:29:37.709Z,71.80
2019-02-04T19:33:42.265Z,73.50
2019-02-04T19:42:05.208Z,71.70
2019-02-04T19:46:09.744Z,72.50
2019-02-04T20:14:37.440Z,71.60
2019-02-04T20:18:42.004Z,72.20
2019-02-04T22:16:44.219Z,72.60
2019-02-04T22:45:56.645Z,71.70
2019-02-04T22:50:01.262Z,72.70
2019-02-04T23:01:51.060Z,72.50
2019-02-04T23:05:55.763Z,73.20
2019-02-04T23:10:00.294Z,72.30
2019-02-04T23:14:05.971Z,73.00
